createdAt,value
2022-08-05T00:01:20.074Z,26.96
2022-08-05T00:02:07.873Z,26.83
2022-08-05T00:02:58.933Z,26.93
2022-08-05T00:03:58.815Z,26.91
2022-08-05T00:04:58.817Z,27.08
2022-08-05T00:06:06.681Z,26.86
2022-08-05T00:06:58.795Z,27.05
2022-08-05T00:08:01.310Z,26.86
2022-08-05T00:08:58.809Z,27.09
2022-08-05T00:09:58.791Z,27
2022-08-05T00:11:00.272Z,26.85
2022-08-05T00:11:59.833Z,26.86
2022-08-05T00:12:58.793Z,26.96
2022-08-05T00:13:58.789Z,27.05
2022-08-05T00:14:58.796Z,26.83
2022-08-05T00:16:00.292Z,26.92
2022-08-05T00:16:58.787Z,27.06
2022-08-05T00:17:58.786Z,26.8
2022-08-05T00:18:59.156Z,26.9
2022-08-05T00:20:02.622Z,26.86
2022-08-05T00:20:58.773Z,26.79
2022-08-05T00:21:58.781Z,26.87
2022-08-05T00:23:02.561Z,26.96
2022-08-05T00:24:10.985Z,26.82
2022-08-05T00:24:58.777Z,27.06
2022-08-05T00:25:58.774Z,27.03
2022-08-05T00:26:58.840Z,27.04
2022-08-05T00:27:58.775Z,26.93
2022-08-05T00:28:58.786Z,26.9
2022-08-05T00:29:58.786Z,26.87
2022-08-05T00:31:04.535Z,26.99
2022-08-05T00:32:13.553Z,26.91
2022-08-05T00:32:58.770Z,27.05
2022-08-05T00:34:55.705Z,26.92
2022-08-05T00:35:06.941Z,26.98
2022-08-05T00:36:14.930Z,26.99
2022-08-05T00:37:13.159Z,26.84
2022-08-05T00:37:58.793Z,26.82
2022-08-05T00:38:59.445Z,26.89
2022-08-05T00:39:59.255Z,26.99
2022-08-05T00:40:58.764Z,26.99
2022-08-05T00:41:58.760Z,27
2022-08-05T00:42:58.795Z,27.01
2022-08-05T00:43:58.756Z,26.97
2022-08-05T00:44:58.782Z,27.12
2022-08-05T00:45:58.771Z,26.86
2022-08-05T00:47:04.237Z,26.97
2022-08-05T00:48:05.726Z,27.04
2022-08-05T00:48:58.768Z,27.04
2022-08-05T00:49:58.780Z,26.79
2022-08-05T00:50:58.775Z,27.04
2022-08-05T00:51:58.766Z,26.83
2022-08-05T00:52:58.773Z,26.88
2022-08-05T00:54:02.781Z,27.02
2022-08-05T00:54:58.770Z,27.14
2022-08-05T00:55:58.762Z,26.96
2022-08-05T00:56:58.756Z,26.92
2022-08-05T00:57:59.393Z,26.71
2022-08-05T00:58:58.754Z,26.91
2022-08-05T00:59:58.760Z,27.09
2022-08-05T01:00:58.835Z,27.03
2022-08-05T01:01:58.808Z,26.88
2022-08-05T01:02:59.871Z,26.85
2022-08-05T01:03:58.755Z,26.91
2022-08-05T01:04:58.749Z,27.03
2022-08-05T01:05:58.773Z,26.91
2022-08-05T01:06:58.764Z,27
2022-08-05T01:08:41.547Z,26.81
2022-08-05T01:08:58.741Z,27.09
2022-08-05T01:09:58.741Z,26.92
2022-08-05T01:10:58.766Z,27.05
2022-08-05T01:12:01.916Z,26.99
2022-08-05T01:13:05.096Z,27.11
2022-08-05T01:13:59.872Z,26.88
2022-08-05T01:14:58.744Z,26.92
2022-08-05T01:15:58.744Z,26.83
2022-08-05T01:16:58.734Z,27.05
2022-08-05T01:17:58.737Z,26.73
2022-08-05T01:18:58.762Z,26.85
2022-08-05T01:20:03.053Z,26.91
2022-08-05T01:20:58.753Z,26.93
2022-08-05T01:21:58.796Z,26.85
2022-08-05T01:22:58.746Z,27.11
2022-08-05T01:23:58.749Z,26.7
2022-08-05T01:24:58.762Z,26.79
2022-08-05T01:25:58.752Z,26.83
2022-08-05T01:26:58.771Z,27.01
2022-08-05T01:27:58.757Z,26.94
2022-08-05T01:29:04.644Z,26.74
2022-08-05T01:29:58.737Z,26.7
2022-08-05T01:30:58.740Z,26.77
2022-08-05T01:31:58.738Z,26.75
2022-08-05T01:32:58.739Z,26.87
2022-08-05T01:33:58.731Z,26.79
2022-08-05T01:34:58.735Z,26.87
2022-08-05T01:35:58.733Z,26.75
2022-08-05T01:37:00.555Z,26.68
2022-08-05T01:37:58.762Z,26.83
2022-08-05T01:39:00.363Z,26.95
2022-08-05T01:39:59.389Z,26.85
2022-08-05T01:40:58.741Z,27
2022-08-05T01:41:58.728Z,26.78
2022-08-05T01:42:58.735Z,27.02
2022-08-05T01:43:58.729Z,26.73
2022-08-05T01:44:59.153Z,26.9
2022-08-05T01:45:58.716Z,26.74
2022-08-05T01:46:58.719Z,26.86
2022-08-05T01:47:58.717Z,26.73
2022-08-05T01:48:58.728Z,26.85
2022-08-05T01:50:00.113Z,26.8
2022-08-05T01:51:00.169Z,26.81
2022-08-05T01:51:58.968Z,26.75
2022-08-05T01:52:58.721Z,26.66
2022-08-05T01:53:59.080Z,26.7
2022-08-05T01:54:58.723Z,26.81
2022-08-05T01:55:58.711Z,26.71
2022-08-05T01:58:14.856Z,26.72
2022-08-05T01:58:18.883Z,26.87
2022-08-05T01:58:58.706Z,26.67
2022-08-05T01:59:59.232Z,26.72
2022-08-05T02:00:58.713Z,26.73
2022-08-05T02:01:58.862Z,26.64
2022-08-05T02:02:58.696Z,26.62
2022-08-05T02:03:58.708Z,26.64
2022-08-05T02:04:58.707Z,26.89
2022-08-05T02:05:58.712Z,26.72
2022-08-05T02:06:58.693Z,26.91
2022-08-05T02:08:01.204Z,26.8
2022-08-05T02:08:59.355Z,26.76
2022-08-05T02:09:58.713Z,26.67
2022-08-05T02:10:58.703Z,26.7
2022-08-05T02:11:58.689Z,26.62
2022-08-05T02:12:58.688Z,26.71
2022-08-05T02:13:58.692Z,26.79
2022-08-05T02:14:58.696Z,26.89
2022-08-05T02:15:58.686Z,26.65
2022-08-05T02:16:58.722Z,26.63
2022-08-05T02:18:28.451Z,26.64
2022-08-05T02:18:58.677Z,26.68
2022-08-05T02:19:58.688Z,26.66
2022-08-05T02:20:59.049Z,26.93
2022-08-05T02:21:58.694Z,26.77
2022-08-05T02:22:58.675Z,26.73
2022-08-05T02:23:58.676Z,26.61
2022-08-05T02:25:00.202Z,26.65
2022-08-05T02:25:58.688Z,26.68
2022-08-05T02:26:58.671Z,26.75
2022-08-05T02:28:00.499Z,26.64
2022-08-05T02:28:58.669Z,26.57
2022-08-05T02:30:00.699Z,26.61
2022-08-05T02:30:58.686Z,26.65
2022-08-05T02:31:58.660Z,26.7
2022-08-05T02:32:58.676Z,26.86
2022-08-05T02:33:58.673Z,26.69
2022-08-05T02:34:58.657Z,26.81
2022-08-05T02:36:00.820Z,26.59
2022-08-05T02:36:58.667Z,26.79
2022-08-05T02:38:00.193Z,26.61
2022-08-05T02:38:58.735Z,26.64
2022-08-05T02:39:58.655Z,26.59
2022-08-05T02:40:58.658Z,26.61
2022-08-05T02:42:01.200Z,26.58
2022-08-05T02:42:58.662Z,26.7
2022-08-05T02:44:02.869Z,26.6
2022-08-05T02:44:58.645Z,26.6
2022-08-05T02:45:58.653Z,26.66
2022-08-05T02:47:00.704Z,26.76
2022-08-05T02:48:11.546Z,26.61
2022-08-05T02:48:58.647Z,26.73
2022-08-05T02:49:58.649Z,26.61
2022-08-05T02:50:58.641Z,26.6
2022-08-05T02:52:03.965Z,26.6
2022-08-05T02:52:58.652Z,26.75
2022-08-05T02:54:03.357Z,26.59
2022-08-05T02:54:58.640Z,26.64
2022-08-05T02:56:00.383Z,26.56
2022-08-05T02:56:58.645Z,26.58
2022-08-05T02:58:19.870Z,26.57
2022-08-05T02:58:58.638Z,26.56
2022-08-05T02:59:59.456Z,26.56
2022-08-05T03:00:58.639Z,26.73
2022-08-05T03:01:58.695Z,26.59
2022-08-05T03:02:58.627Z,26.71
2022-08-05T03:04:03.043Z,26.6
2022-08-05T03:04:58.628Z,26.65
2022-08-05T03:06:55.155Z,26.63
2022-08-05T03:06:59.477Z,26.63
2022-08-05T03:08:06.928Z,26.56
2022-08-05T03:08:58.631Z,26.61
2022-08-05T03:09:58.622Z,26.57
2022-08-05T03:11:41.191Z,26.7
2022-08-05T03:11:58.627Z,26.63
2022-08-05T03:14:03.272Z,26.59
2022-08-05T03:14:58.615Z,26.55
2022-08-05T03:15:58.612Z,26.54
2022-08-05T03:16:59.038Z,26.66
2022-08-05T03:17:59.508Z,26.51
2022-08-05T03:18:58.620Z,26.56
2022-08-05T03:19:58.706Z,26.57
2022-08-05T03:20:58.606Z,26.63
2022-08-05T03:21:58.614Z,26.5
2022-08-05T03:22:58.620Z,26.62
2022-08-05T03:23:58.615Z,26.54
2022-08-05T03:24:58.606Z,26.55
2022-08-05T03:26:30.497Z,26.58
2022-08-05T03:26:58.622Z,26.6
2022-08-05T03:27:59.897Z,26.56
2022-08-05T03:28:58.604Z,26.58
2022-08-05T03:30:08.191Z,26.52
2022-08-05T03:30:58.600Z,26.69
2022-08-05T03:32:00.520Z,26.59
2022-08-05T03:32:58.603Z,26.6
2022-08-05T03:33:58.606Z,26.53
2022-08-05T03:34:59.780Z,26.58
2022-08-05T03:35:58.595Z,26.53
2022-08-05T03:36:58.598Z,26.67
2022-08-05T03:37:58.605Z,26.56
2022-08-05T03:38:58.705Z,26.65
2022-08-05T03:40:01.143Z,26.59
2022-08-05T03:40:58.731Z,26.65
2022-08-05T03:41:58.588Z,26.57
2022-08-05T03:42:58.608Z,26.79
2022-08-05T03:44:11.163Z,26.67
2022-08-05T03:44:58.578Z,26.86
2022-08-05T03:45:59.095Z,26.62
2022-08-05T03:46:58.582Z,26.44
2022-08-05T03:47:58.587Z,26.68
2022-08-05T03:48:58.595Z,26.77
2022-08-05T03:49:58.601Z,26.54
2022-08-05T03:50:59.231Z,26.52
2022-08-05T03:52:48.514Z,26.63
2022-08-05T03:55:49.907Z,26.54
2022-08-05T03:55:53.955Z,26.58
2022-08-05T03:56:04.361Z,26.53
2022-08-05T03:56:12.214Z,26.52
2022-08-05T03:56:58.981Z,26.61
2022-08-05T03:57:58.562Z,26.45
2022-08-05T03:58:58.567Z,26.57
2022-08-05T03:59:58.566Z,26.63
2022-08-05T04:00:58.620Z,26.54
2022-08-05T04:01:58.737Z,26.58
2022-08-05T04:02:59.267Z,26.55
2022-08-05T04:04:10.320Z,26.6
2022-08-05T04:04:58.550Z,26.54
2022-08-05T04:05:59.223Z,26.73
2022-08-05T04:06:58.555Z,26.77
2022-08-05T04:07:59.065Z,26.59
2022-08-05T04:08:58.558Z,26.62
2022-08-05T04:09:58.554Z,26.56
2022-08-05T04:10:58.559Z,26.44
2022-08-05T04:11:58.563Z,26.5
2022-08-05T04:12:58.902Z,26.69
2022-08-05T04:13:58.548Z,26.56
2022-08-05T04:14:58.595Z,26.56
2022-08-05T04:16:04.176Z,25.63
2022-08-05T04:16:58.567Z,24.93
2022-08-05T04:18:00.042Z,24.8
2022-08-05T04:18:58.542Z,24.86
2022-08-05T04:19:58.801Z,25.05
2022-08-05T04:20:58.554Z,24.65
2022-08-05T04:22:09.392Z,24.35
2022-08-05T04:22:58.545Z,24.18
2022-08-05T04:24:06.368Z,23.87
2022-08-05T04:24:58.542Z,24.12
2022-08-05T04:26:00.882Z,24.09
2022-08-05T04:26:58.546Z,24.48
2022-08-05T04:28:00.646Z,24.65
2022-08-05T04:28:58.526Z,24.44
2022-08-05T04:29:58.554Z,24.36
2022-08-05T04:30:58.522Z,24.16
2022-08-05T04:31:58.546Z,23.96
2022-08-05T04:32:58.522Z,24.26
2022-08-05T04:34:18.395Z,23.53
2022-08-05T04:34:58.527Z,24.16
2022-08-05T04:36:16.397Z,23.88
2022-08-05T04:36:58.534Z,23.92
2022-08-05T04:38:02.616Z,23.97
2022-08-05T04:38:58.589Z,24.13
2022-08-05T04:39:58.514Z,23.95
2022-08-05T04:40:58.775Z,23.9
2022-08-05T04:41:58.524Z,23.59
2022-08-05T04:42:58.521Z,23.76
2022-08-05T04:43:58.517Z,23.65
2022-08-05T04:44:58.515Z,23.6
2022-08-05T04:45:58.528Z,23.58
2022-08-05T04:46:58.787Z,23.43
2022-08-05T04:47:58.511Z,23.44
2022-08-05T04:48:58.701Z,23.16
2022-08-05T04:50:01.422Z,23.41
2022-08-05T04:51:01.858Z,23.63
2022-08-05T04:52:00.514Z,23.64
2022-08-05T04:52:58.512Z,23.66
2022-08-05T04:53:58.504Z,23.59
2022-08-05T04:54:58.906Z,23.64
2022-08-05T04:56:32.998Z,23.76
2022-08-05T04:56:59.713Z,23.87
2022-08-05T04:57:58.500Z,24.07
2022-08-05T04:58:58.511Z,23.8
2022-08-05T04:59:58.938Z,23.75
2022-08-05T05:00:58.587Z,23.88
2022-08-05T05:02:05.617Z,23.97
2022-08-05T05:03:03.678Z,23.95
2022-08-05T05:03:58.498Z,23.96
2022-08-05T05:05:01.889Z,24.14
2022-08-05T05:06:36.565Z,24.19
2022-08-05T05:06:58.507Z,24.17
2022-08-05T05:08:01.822Z,24.28
2022-08-05T05:08:58.477Z,24.02
2022-08-05T05:09:58.503Z,24.29
2022-08-05T05:10:58.496Z,24.23
2022-08-05T05:12:02.848Z,24.19
2022-08-05T05:12:58.502Z,24.27
2022-08-05T05:13:58.490Z,24.33
2022-08-05T05:14:58.493Z,24.35
2022-08-05T05:16:02.036Z,24.17
2022-08-05T05:16:58.539Z,24.11
2022-08-05T05:17:58.765Z,24.02
2022-08-05T05:19:18.684Z,23.8
2022-08-05T05:19:58.502Z,23.29
2022-08-05T05:20:58.625Z,23.64
2022-08-05T05:21:58.474Z,23.67
2022-08-05T05:22:58.496Z,23.64
2022-08-05T05:24:04.017Z,23.66
2022-08-05T05:25:00.238Z,23.33
2022-08-05T05:25:58.469Z,23.62
2022-08-05T05:26:58.471Z,23.37
2022-08-05T05:27:58.478Z,23.72
2022-08-05T05:28:58.469Z,23.17
2022-08-05T05:30:04.625Z,23.13
2022-08-05T05:30:58.476Z,23.23
2022-08-05T05:31:58.484Z,22.93
2022-08-05T05:33:00.576Z,22.97
2022-08-05T05:33:59.393Z,22.92
2022-08-05T05:34:58.461Z,23.07
2022-08-05T05:35:58.444Z,22.75
2022-08-05T05:36:58.460Z,22.79
2022-08-05T05:37:59.500Z,22.6
2022-08-05T05:38:58.544Z,22.87
2022-08-05T05:39:58.457Z,23.11
2022-08-05T05:40:58.449Z,23.29
2022-08-05T05:41:58.440Z,23.29
2022-08-05T05:42:58.443Z,23.05
2022-08-05T05:44:00.560Z,22.99
2022-08-05T05:44:59.547Z,23.14
2022-08-05T05:45:58.442Z,23.39
2022-08-05T05:46:58.450Z,23.3
2022-08-05T05:48:07.109Z,23.48
2022-08-05T05:48:58.442Z,23.6
2022-08-05T05:50:01.488Z,23.61
2022-08-05T05:50:58.438Z,23.76
2022-08-05T05:51:58.443Z,23.73
2022-08-05T05:52:58.434Z,23.73
2022-08-05T05:53:59.635Z,23.84
2022-08-05T05:54:58.467Z,24
2022-08-05T05:56:00.701Z,23.81
2022-08-05T05:56:58.437Z,24.13
2022-08-05T05:57:58.433Z,24.11
2022-08-05T05:58:58.426Z,24.12
2022-08-05T05:59:58.423Z,24.15
2022-08-05T06:00:58.447Z,24.13
2022-08-05T06:01:58.434Z,24.16
2022-08-05T06:02:58.422Z,24.16
2022-08-05T06:04:01.683Z,24.13
2022-08-05T06:04:58.526Z,24.25
2022-08-05T06:05:58.421Z,24.3
2022-08-05T06:06:58.428Z,24.51
2022-08-05T06:08:02.014Z,24.07
2022-08-05T06:08:58.421Z,23.3
2022-08-05T06:10:01.412Z,23.53
2022-08-05T06:10:58.412Z,23.43
2022-08-05T06:12:01.097Z,22.94
2022-08-05T06:12:58.441Z,23.24
2022-08-05T06:14:00.391Z,23.42
2022-08-05T06:14:58.409Z,23.8
2022-08-05T06:16:28.193Z,23.72
2022-08-05T06:16:58.497Z,24.1
2022-08-05T06:17:58.411Z,23.43
2022-08-05T06:18:59.946Z,23.15
2022-08-05T06:19:59.397Z,23.18
2022-08-05T06:20:58.403Z,23.41
2022-08-05T06:21:58.392Z,23.56
2022-08-05T06:22:58.400Z,23.4
2022-08-05T06:23:58.481Z,23.49
2022-08-05T06:24:58.396Z,23.88
2022-08-05T06:26:12.507Z,23.74
2022-08-05T06:26:58.389Z,23.92
2022-08-05T06:28:11.848Z,23.89
2022-08-05T06:28:58.395Z,23.92
2022-08-05T06:30:04.155Z,23.9
2022-08-05T06:30:58.394Z,23.91
2022-08-05T06:31:58.384Z,24.13
2022-08-05T06:32:58.398Z,24.11
2022-08-05T06:34:07.858Z,24.13
2022-08-05T06:34:58.588Z,24.18
2022-08-05T06:36:03.686Z,24.1
2022-08-05T06:36:58.796Z,24.19
2022-08-05T06:38:00.973Z,24.17
2022-08-05T06:38:58.482Z,24.2
2022-08-05T06:39:58.379Z,24.43
2022-08-05T06:40:58.382Z,24.56
2022-08-05T06:41:58.936Z,24.15
2022-08-05T06:42:58.382Z,23.82
2022-08-05T06:44:00.641Z,23.3
2022-08-05T06:44:58.382Z,23.28
2022-08-05T06:46:04.147Z,22.94
2022-08-05T06:46:58.378Z,23.34
2022-08-05T06:48:36.208Z,23.34
2022-08-05T06:48:59.338Z,23.55
2022-08-05T06:50:00.298Z,23.31
2022-08-05T06:50:58.384Z,23.22
2022-08-05T06:51:58.364Z,23.42
2022-08-05T06:52:58.566Z,23.15
2022-08-05T06:53:58.361Z,23.15
2022-08-05T06:54:58.356Z,23.14
2022-08-05T06:55:58.395Z,22.71
2022-08-05T06:57:13.833Z,23.12
2022-08-05T06:58:11.569Z,23.05
2022-08-05T06:58:58.360Z,23.15
2022-08-05T06:59:58.443Z,23.57
2022-08-05T07:00:58.486Z,23.22
2022-08-05T07:01:58.350Z,23.23
2022-08-05T07:02:58.352Z,23.22
2022-08-05T07:03:58.349Z,23.08
2022-08-05T07:04:58.355Z,23.12
2022-08-05T07:05:58.355Z,23.24
2022-08-05T07:06:58.348Z,23.43
2022-08-05T07:07:58.348Z,23.71
2022-08-05T07:08:59.036Z,23.74
2022-08-05T07:09:58.630Z,23.67
2022-08-05T07:10:58.347Z,23.82
2022-08-05T07:12:00.637Z,23.77
2022-08-05T07:12:58.363Z,23.87
2022-08-05T07:14:00.042Z,23.94
2022-08-05T07:14:58.333Z,23.77
2022-08-05T07:16:00.867Z,24
2022-08-05T07:17:58.470Z,24.2
2022-08-05T07:18:09.034Z,24.35
2022-08-05T07:18:58.346Z,24.32
2022-08-05T07:20:31.410Z,24.5
2022-08-05T07:20:58.329Z,24.26
2022-08-05T07:22:00.276Z,24.14
2022-08-05T07:22:58.333Z,24.2
2022-08-05T07:23:58.323Z,24.12
2022-08-05T07:24:58.339Z,24.16
2022-08-05T07:25:58.344Z,24.24
2022-08-05T07:26:58.325Z,24.63
2022-08-05T07:28:03.794Z,24.6
2022-08-05T07:28:59.806Z,24.44
2022-08-05T07:30:24.043Z,24.17
2022-08-05T07:30:58.313Z,24.2
2022-08-05T07:31:58.317Z,24.08
2022-08-05T07:32:58.313Z,23.86
2022-08-05T07:33:59.846Z,23.68
2022-08-05T07:34:58.345Z,23.83
2022-08-05T07:36:05.557Z,23.42
2022-08-05T07:36:58.319Z,23.37
2022-08-05T07:37:58.310Z,23.6
2022-08-05T07:38:58.377Z,23.66
2022-08-05T07:40:26.498Z,23.44
2022-08-05T07:41:00.344Z,23.58
2022-08-05T07:42:13.712Z,23.41
2022-08-05T07:42:58.323Z,23.09
2022-08-05T07:43:58.311Z,23.25
2022-08-05T07:44:58.303Z,23.11
2022-08-05T07:45:58.802Z,23.05
2022-08-05T07:46:58.299Z,23.03
2022-08-05T07:47:58.300Z,23.14
2022-08-05T07:49:01.909Z,22.98
2022-08-05T07:49:58.305Z,23.03
2022-08-05T07:50:58.310Z,23.27
2022-08-05T07:51:58.309Z,23.38
2022-08-05T07:52:58.298Z,23.58
2022-08-05T07:53:58.309Z,23.68
2022-08-05T07:54:58.290Z,23.84
2022-08-05T07:56:06.172Z,23.78
2022-08-05T07:57:01.857Z,23.94
2022-08-05T07:58:03.110Z,24.04
2022-08-05T07:58:59.158Z,24.09
2022-08-05T07:59:58.294Z,23.84
2022-08-05T08:00:58.353Z,24.08
2022-08-05T08:01:58.426Z,24.1
2022-08-05T08:03:15.307Z,24.18
2022-08-05T08:03:58.283Z,24.19
2022-08-05T08:04:58.283Z,24.44
2022-08-05T08:05:58.279Z,24.55
2022-08-05T08:06:58.286Z,23.92
2022-08-05T08:07:59.603Z,23.87
2022-08-05T08:08:58.279Z,23.81
2022-08-05T08:09:58.283Z,23.47
2022-08-05T08:10:58.281Z,23.34
2022-08-05T08:11:59.049Z,23.21
2022-08-05T08:12:58.587Z,23.1
2022-08-05T08:14:00.683Z,22.81
2022-08-05T08:15:02.148Z,23.13
2022-08-05T08:16:35.167Z,23.12
2022-08-05T08:16:58.265Z,23.33
2022-08-05T08:17:58.267Z,23.17
2022-08-05T08:18:58.284Z,22.89
2022-08-05T08:20:21.051Z,22.78
2022-08-05T08:21:02.265Z,22.65
2022-08-05T08:21:58.276Z,22.66
2022-08-05T08:22:58.261Z,22.99
2022-08-05T08:24:03.356Z,23.27
2022-08-05T08:25:03.374Z,23
2022-08-05T08:26:00.393Z,22.91
2022-08-05T08:26:58.250Z,23.09
2022-08-05T08:27:58.255Z,23.14
2022-08-05T08:29:02.361Z,23.4
2022-08-05T08:30:03.852Z,23.23
2022-08-05T08:30:58.251Z,23.16
2022-08-05T08:31:58.244Z,23.4
2022-08-05T08:32:58.241Z,23.96
2022-08-05T08:33:58.259Z,23.89
2022-08-05T08:34:58.244Z,24.12
2022-08-05T08:36:18.482Z,24.16
2022-08-05T08:37:04.760Z,24.25
2022-08-05T08:37:58.247Z,24.27
2022-08-05T08:38:58.345Z,24.41
2022-08-05T08:39:58.363Z,24.19
2022-08-05T08:40:58.237Z,24.35
2022-08-05T08:41:59.946Z,24.29
2022-08-05T08:42:58.411Z,24.45
2022-08-05T08:45:20.002Z,24.41
2022-08-05T08:45:21.058Z,24.2
2022-08-05T08:45:58.230Z,24.06
2022-08-05T08:46:58.253Z,24.16
2022-08-05T08:48:10.641Z,24.23
2022-08-05T08:49:17.306Z,24.03
2022-08-05T08:50:12.867Z,23.65
2022-08-05T08:51:22.544Z,23.74
2022-08-05T08:52:03.940Z,23.87
2022-08-05T08:52:58.227Z,24.07
2022-08-05T08:53:58.220Z,23.64
2022-08-05T08:54:58.221Z,23.6
2022-08-05T08:56:04.658Z,23.16
2022-08-05T08:56:58.226Z,23.09
2022-08-05T08:57:58.616Z,22.93
2022-08-05T08:58:58.218Z,23.03
2022-08-05T08:59:58.214Z,22.92
2022-08-05T09:00:58.301Z,22.75
2022-08-05T09:02:00.950Z,22.65
2022-08-05T09:02:58.213Z,23.03
2022-08-05T09:03:58.458Z,22.9
2022-08-05T09:05:17.478Z,23.34
2022-08-05T09:06:08.935Z,23.48
2022-08-05T09:06:58.304Z,23.23
2022-08-05T09:07:58.255Z,23.09
2022-08-05T09:08:58.218Z,22.98
2022-08-05T09:09:58.217Z,23.05
2022-08-05T09:10:58.203Z,23.01
2022-08-05T09:12:03.373Z,23.09
2022-08-05T09:13:04.701Z,23.1
2022-08-05T09:14:09.436Z,23.18
2022-08-05T09:15:05.650Z,23.44
2022-08-05T09:15:58.202Z,23.73
2022-08-05T09:16:58.193Z,23.89
2022-08-05T09:17:58.192Z,23.91
2022-08-05T09:18:59.332Z,23.93
2022-08-05T09:20:02.482Z,24.12
2022-08-05T09:20:58.190Z,24.17
2022-08-05T09:22:23.205Z,24.19
2022-08-05T09:23:05.304Z,24.15
2022-08-05T09:24:02.368Z,24.46
2022-08-05T09:24:58.184Z,24.42
2022-08-05T09:26:02.797Z,24.51
2022-08-05T09:26:58.792Z,24.58
2022-08-05T09:28:04.419Z,24.62
2022-08-05T09:28:58.189Z,24.28
2022-08-05T09:29:58.180Z,24.19
2022-08-05T09:30:58.182Z,23.96
2022-08-05T09:32:43.055Z,23.88
2022-08-05T09:32:58.193Z,23.53
2022-08-05T09:33:58.181Z,23.14
2022-08-05T09:34:58.180Z,23.26
2022-08-05T09:35:58.169Z,23.09
2022-08-05T09:36:59.093Z,22.93
2022-08-05T09:38:12.375Z,23.12
2022-08-05T09:38:58.249Z,22.99
2022-08-05T09:39:58.243Z,23
2022-08-05T09:40:58.169Z,23.01
2022-08-05T09:41:58.498Z,22.86
2022-08-05T09:42:58.176Z,22.65
2022-08-05T09:43:58.164Z,22.79
2022-08-05T09:45:17.844Z,22.91
2022-08-05T09:46:07.854Z,23.16
2022-08-05T09:46:58.241Z,23.62
2022-08-05T09:47:58.168Z,23.63
2022-08-05T09:49:08.226Z,23.81
2022-08-05T09:50:02.543Z,23.77
2022-08-05T09:50:58.158Z,23.78
2022-08-05T09:51:58.155Z,23.9
2022-08-05T09:52:58.172Z,24.15
2022-08-05T09:53:59.235Z,24.2
2022-08-05T09:54:58.210Z,24.39
2022-08-05T09:56:04.786Z,24.41
2022-08-05T09:57:01.366Z,24.56
2022-08-05T09:57:58.450Z,24.53
2022-08-05T09:58:58.159Z,24.38
2022-08-05T09:59:58.171Z,24.36
2022-08-05T10:00:58.162Z,24.48
2022-08-05T10:01:59.161Z,24.51
2022-08-05T10:02:59.140Z,24.13
2022-08-05T10:03:59.388Z,23.97
2022-08-05T10:04:58.185Z,24.13
2022-08-05T10:05:58.156Z,24.08
2022-08-05T10:06:59.585Z,23.65
2022-08-05T10:08:35.171Z,23.8
2022-08-05T10:08:58.158Z,23.5
2022-08-05T10:10:14.127Z,23.68
2022-08-05T10:10:58.175Z,23.42
2022-08-05T10:11:58.150Z,23.45
2022-08-05T10:12:58.151Z,22.97
2022-08-05T10:13:58.142Z,22.87
2022-08-05T10:14:58.157Z,22.76
2022-08-05T10:15:58.147Z,23.23
2022-08-05T10:16:58.148Z,23.09
2022-08-05T10:17:58.141Z,22.93
2022-08-05T10:18:58.140Z,23.12
2022-08-05T10:20:03.948Z,23.14
2022-08-05T10:20:58.153Z,23.13
2022-08-05T10:21:58.130Z,23.38
2022-08-05T10:22:58.546Z,22.96
2022-08-05T10:23:59.900Z,22.86
2022-08-05T10:24:58.135Z,22.97
2022-08-05T10:25:58.139Z,22.96
2022-08-05T10:27:00.608Z,22.83
2022-08-05T10:28:12.961Z,23.03
2022-08-05T10:28:58.186Z,23.4
2022-08-05T10:30:41.931Z,23.32
2022-08-05T10:32:53.397Z,23.61
2022-08-05T10:32:54.430Z,23.63
2022-08-05T10:33:01.746Z,23.97
2022-08-05T10:33:58.120Z,23.85
2022-08-05T10:34:58.122Z,23.98
2022-08-05T10:35:59.181Z,23.93
2022-08-05T10:36:58.144Z,24.13
2022-08-05T10:37:58.125Z,24.19
2022-08-05T10:38:58.177Z,24.33
2022-08-05T10:40:03.966Z,24.03
2022-08-05T10:40:58.490Z,24.17
2022-08-05T10:42:00.998Z,24.2
2022-08-05T10:42:58.129Z,24.36
2022-08-05T10:43:59.307Z,24.18
2022-08-05T10:44:58.113Z,24.35
2022-08-05T10:46:06.451Z,24.36
2022-08-05T10:46:58.115Z,24.49
2022-08-05T10:48:31.744Z,24
2022-08-05T10:49:01.492Z,23.93
2022-08-05T10:50:32.065Z,23.93
2022-08-05T10:50:58.101Z,23.62
2022-08-05T10:52:00.674Z,23.6
2022-08-05T10:52:58.561Z,23.45
2022-08-05T10:53:58.522Z,23.44
2022-08-05T10:54:58.102Z,23.66
2022-08-05T10:56:03.731Z,23.26
2022-08-05T10:56:58.109Z,23.11
2022-08-05T10:57:58.109Z,22.77
2022-08-05T10:58:58.096Z,22.7
2022-08-05T11:00:02.696Z,23.08
2022-08-05T11:01:02.736Z,22.98
2022-08-05T11:02:03.860Z,23.38
2022-08-05T11:02:58.185Z,23.41
2022-08-05T11:03:58.160Z,23.23
2022-08-05T11:04:58.087Z,23.14
2022-08-05T11:05:58.097Z,23.5
2022-08-05T11:06:58.087Z,23.8
2022-08-05T11:08:02.732Z,23.36
2022-08-05T11:08:58.081Z,23.12
2022-08-05T11:10:09.646Z,23.23
2022-08-05T11:11:01.012Z,23.19
2022-08-05T11:11:58.076Z,23.52
2022-08-05T11:12:58.087Z,23.23
2022-08-05T11:13:58.538Z,23.26
2022-08-05T11:15:11.438Z,23.31
2022-08-05T11:16:00.729Z,23.36
2022-08-05T11:17:01.149Z,23.17
2022-08-05T11:18:03.898Z,23.15
2022-08-05T11:18:58.067Z,23.41
2022-08-05T11:20:10.335Z,23.17
2022-08-05T11:20:58.080Z,23.23
2022-08-05T11:21:58.081Z,23.42
2022-08-05T11:23:02.189Z,23.55
2022-08-05T11:24:05.192Z,23.57
2022-08-05T11:25:16.895Z,23.42
2022-08-05T11:26:05.554Z,23.64
2022-08-05T11:26:58.080Z,23.94
2022-08-05T11:28:00.729Z,24.08
2022-08-05T11:29:02.401Z,24.16
2022-08-05T11:29:58.053Z,23.95
2022-08-05T11:30:58.575Z,23.64
2022-08-05T11:32:01.234Z,23.64
2022-08-05T11:32:58.050Z,23.84
2022-08-05T11:33:58.564Z,23.68
2022-08-05T11:34:58.061Z,23.67
2022-08-05T11:36:07.598Z,23.35
2022-08-05T11:36:58.060Z,23.63
2022-08-05T11:38:28.165Z,23.62
2022-08-05T11:38:58.566Z,23.68
2022-08-05T11:40:03.186Z,24.11
2022-08-05T11:41:01.715Z,24.17
2022-08-05T11:42:02.066Z,24.13
2022-08-05T11:42:58.049Z,24.12
2022-08-05T11:44:04.462Z,24.37
2022-08-05T11:44:58.039Z,24.4
2022-08-05T11:46:27.042Z,24.24
2022-08-05T11:47:10.923Z,23.94
2022-08-05T11:47:58.052Z,24.01
2022-08-05T11:48:58.043Z,24.27
2022-08-05T11:49:58.023Z,23.85
2022-08-05T11:50:58.029Z,24.3
2022-08-05T11:51:58.035Z,23.51
2022-08-05T11:52:58.384Z,23.4
2022-08-05T11:53:58.034Z,23.66
2022-08-05T11:54:58.031Z,23.64
2022-08-05T11:55:58.034Z,23.73
2022-08-05T11:56:58.031Z,23.54
2022-08-05T11:58:10.289Z,23
2022-08-05T11:58:58.027Z,23.19
2022-08-05T11:59:58.031Z,23.2
2022-08-05T12:00:58.025Z,23.37
2022-08-05T12:01:58.024Z,23.66
2022-08-05T12:02:58.113Z,23.68
2022-08-05T12:03:58.035Z,23.97
2022-08-05T12:04:59.672Z,23.88
2022-08-05T12:05:58.018Z,23.78
2022-08-05T12:06:58.020Z,23.98
2022-08-05T12:08:03.381Z,24.2
2022-08-05T12:08:58.021Z,23.97
2022-08-05T12:09:58.858Z,23.64
2022-08-05T12:10:58.016Z,23.18
2022-08-05T12:11:58.046Z,23.72
2022-08-05T12:12:59.536Z,23.74
2022-08-05T12:13:58.556Z,23.72
2022-08-05T12:14:58.021Z,23.91
2022-08-05T12:15:58.005Z,23.75
2022-08-05T12:16:58.009Z,23.72
2022-08-05T12:17:58.012Z,23.91
2022-08-05T12:18:57.998Z,23.65
2022-08-05T12:20:27.890Z,23.34
2022-08-05T12:20:57.995Z,23.6
2022-08-05T12:21:58.000Z,23.64
2022-08-05T12:22:58.029Z,23.67
2022-08-05T12:23:57.992Z,23.75
2022-08-05T12:24:57.996Z,23.8
2022-08-05T12:25:57.987Z,24.03
2022-08-05T12:26:57.994Z,24.01
2022-08-05T12:27:58.015Z,24.38
2022-08-05T12:28:57.990Z,24.33
2022-08-05T12:29:57.996Z,24.15
2022-08-05T12:30:57.986Z,24.16
2022-08-05T12:31:57.989Z,23.97
2022-08-05T12:32:57.993Z,24.01
2022-08-05T12:33:57.999Z,24.01
2022-08-05T12:34:57.991Z,24.31
2022-08-05T12:35:58.030Z,24.48
2022-08-05T12:36:57.983Z,24.05
2022-08-05T12:37:57.980Z,23.37
2022-08-05T12:38:58.053Z,23.78
2022-08-05T12:40:03.292Z,24
2022-08-05T12:40:57.983Z,24.11
2022-08-05T12:41:58.269Z,23.93
2022-08-05T12:42:57.986Z,23.88
2022-08-05T12:43:57.971Z,23.76
2022-08-05T12:44:57.968Z,23.78
2022-08-05T12:45:57.972Z,23.64
2022-08-05T12:46:57.989Z,23.46
2022-08-05T12:48:01.353Z,23.5
2022-08-05T12:48:57.989Z,23.63
2022-08-05T12:50:04.782Z,23.3
2022-08-05T12:50:57.973Z,23.1
2022-08-05T12:52:13.876Z,23.64
2022-08-05T12:52:57.971Z,23.56
2022-08-05T12:53:57.964Z,23.5
2022-08-05T12:54:57.958Z,23.43
2022-08-05T12:55:57.969Z,23.17
2022-08-05T12:56:57.956Z,23.17
2022-08-05T12:58:48.829Z,23.14